Time;durP1;ratioP1;P1;durP2;ratioP2;P2;SDS_P1;SDS_P2;PMS_P1;PMS_P2;Temp;Humidity;BMP_temperature;BMP_pressure;BME280_temperature;BME280_humidity;BME280_pressure;Samples;Min_cycle;Max_cycle;Signal;HPM_P1;HPM_P2
2024/01/01 00:01:40;;;;;;;141.57;58.22;;;;;;;;;;5054227;28;20044;-76
2024/01/01 00:04:06;;;;;;;132.00;58.92;;;;;;;;;;5061920;28;20032;-76
2024/01/01 00:06:32;;;;;;;149.32;66.20;;;;;;;;;;5053441;28;20083;-77
2024/01/01 00:08:58;;;;;;;150.00;60.67;;;;;;;;;;5050646;28;20553;-76
2024/01/01 00:11:24;;;;;;;138.25;60.17;;;;;;;;;;5048230;28;20463;-76
2024/01/01 00:13:49;;;;;;;137.30;60.90;;;;;;;;;;5055495;28;20037;-76
2024/01/01 00:16:15;;;;;;;130.57;57.03;;;;;;;;;;5058084;28;20115;-76
2024/01/01 00:18:42;;;;;;;131.93;61.42;;;;;;;;;;5063328;28;20029;-76
2024/01/01 00:21:08;;;;;;;123.05;56.00;;;;;;;;;;5065590;28;20553;-76
2024/01/01 00:23:34;;;;;;;134.50;57.58;;;;;;;;;;5055060;28;20033;-76
2024/01/01 00:26:00;;;;;;;122.90;54.15;;;;;;;;;;5051644;28;20028;-76
2024/01/01 00:28:26;;;;;;;117.95;56.40;;;;;;;;;;5059610;28;20188;-77
2024/01/01 00:30:55;;;;;;;131.27;56.97;;;;;;;;;;5061183;28;20028;-76
2024/01/01 00:33:21;;;;;;;128.10;60.25;;;;;;;;;;5050460;28;20039;-76
2024/01/01 00:35:48;;;;;;;138.48;66.13;;;;;;;;;;5045713;28;20774;-76
2024/01/01 00:38:14;;;;;;;162.68;68.32;;;;;;;;;;5050070;28;20060;-76
2024/01/01 00:40:40;;;;;;;182.20;76.55;;;;;;;;;;5066466;28;20060;-76
2024/01/01 00:43:06;;;;;;;182.35;76.47;;;;;;;;;;5069890;28;20044;-76
2024/01/01 00:45:32;;;;;;;184.05;80.80;;;;;;;;;;5069536;28;20021;-77
2024/01/01 00:47:58;;;;;;;170.77;72.88;;;;;;;;;;5052122;28;20409;-76
2024/01/01 00:50:24;;;;;;;168.75;69.65;;;;;;;;;;5049792;28;20025;-76
2024/01/01 00:52:50;;;;;;;142.18;63.90;;;;;;;;;;5049646;28;20032;-76
2024/01/01 00:55:16;;;;;;;128.68;58.20;;;;;;;;;;5049935;28;20478;-76
2024/01/01 00:57:41;;;;;;;135.45;57.63;;;;;;;;;;5066305;28;20073;-76
2024/01/01 01:00:11;;;;;;;119.05;49.83;;;;;;;;;;5060955;28;20029;-77
2024/01/01 01:02:37;;;;;;;84.93;39.25;;;;;;;;;;5052323;28;20048;-76
2024/01/01 01:05:02;;;;;;;94.65;43.17;;;;;;;;;;5052020;28;20463;-77
2024/01/01 01:07:30;;;;;;;85.85;34.00;;;;;;;;;;5059981;28;20638;-77
2024/01/01 01:09:56;;;;;;;84.10;37.03;;;;;;;;;;5067405;28;20025;-76
2024/01/01 01:12:22;;;;;;;78.07;35.03;;;;;;;;;;5068934;28;20459;-77
2024/01/01 01:14:48;;;;;;;78.45;34.08;;;;;;;;;;5063096;28;20059;-76
2024/01/01 01:17:14;;;;;;;66.70;30.33;;;;;;;;;;5053862;28;20045;-76
2024/01/01 01:19:40;;;;;;;59.15;28.15;;;;;;;;;;5064256;28;20032;-77
2024/01/01 01:22:06;;;;;;;49.72;23.52;;;;;;;;;;5066528;28;20024;-75
2024/01/01 01:24:32;;;;;;;52.15;24.95;;;;;;;;;;5060169;28;20414;-77
2024/01/01 01:26:58;;;;;;;58.30;25.15;;;;;;;;;;5052996;28;20032;-76
2024/01/01 01:29:24;;;;;;;48.92;24.13;;;;;;;;;;5060085;28;20108;-76
2024/01/01 01:31:50;;;;;;;52.80;24.88;;;;;;;;;;5054439;28;20032;-77
2024/01/01 01:34:16;;;;;;;50.03;23.35;;;;;;;;;;5055434;28;20377;-77
2024/01/01 01:36:42;;;;;;;42.83;20.33;;;;;;;;;;5049199;28;20387;-76
2024/01/01 01:39:09;;;;;;;44.03;20.60;;;;;;;;;;5057095;28;20090;-77
2024/01/01 01:41:37;;;;;;;46.28;20.13;;;;;;;;;;5062521;28;20036;-77
2024/01/01 01:44:03;;;;;;;48.13;21.25;;;;;;;;;;5053447;28;20028;-77
2024/01/01 01:46:29;;;;;;;44.03;18.35;;;;;;;;;;5064805;28;20434;-78
2024/01/01 01:48:55;;;;;;;29.52;17.48;;;;;;;;;;5061791;28;20025;-79
2024/01/01 01:51:21;;;;;;;45.00;19.10;;;;;;;;;;5054913;28;20068;-79
2024/01/01 01:53:47;;;;;;;39.45;16.63;;;;;;;;;;5052645;28;20052;-79
2024/01/01 01:56:14;;;;;;;38.30;17.08;;;;;;;;;;5056713;28;20442;-80
2024/01/01 01:58:40;;;;;;;27.85;13.43;;;;;;;;;;5059956;28;20431;-80
2024/01/01 02:01:07;;;;;;;21.52;12.05;;;;;;;;;;5062980;28;20040;-79
2024/01/01 02:03:33;;;;;;;24.33;12.10;;;;;;;;;;5066488;28;20024;-77
2024/01/01 02:05:59;;;;;;;23.75;12.02;;;;;;;;;;5052232;28;20028;-76
2024/01/01 02:08:25;;;;;;;31.95;14.13;;;;;;;;;;5056465;28;20097;-77
2024/01/01 02:10:51;;;;;;;24.95;13.75;;;;;;;;;;5054521;28;20395;-76
2024/01/01 02:13:35;;;;;;;27.70;11.50;;;;;;;;;;5049881;28;20036;-76
2024/01/01 02:16:01;;;;;;;28.48;12.35;;;;;;;;;;5050137;28;20089;-76
2024/01/01 02:18:27;;;;;;;20.92;11.57;;;;;;;;;;5050267;28;20028;-76
2024/01/01 02:20:53;;;;;;;23.80;12.27;;;;;;;;;;5053804;28;20029;-76
2024/01/01 02:23:19;;;;;;;29.60;12.95;;;;;;;;;;5049453;28;20028;-76
2024/01/01 02:25:45;;;;;;;24.70;11.48;;;;;;;;;;5050364;28;20468;-76
2024/01/01 02:28:11;;;;;;;24.88;10.75;;;;;;;;;;5055430;28;20029;-76
2024/01/01 02:30:37;;;;;;;23.75;10.82;;;;;;;;;;5057026;28;20108;-76
2024/01/01 02:33:07;;;;;;;21.38;9.68;;;;;;;;;;5061039;28;20019;-77
2024/01/01 02:35:33;;;;;;;23.88;9.30;;;;;;;;;;5062422;28;20073;-76
2024/01/01 02:37:59;;;;;;;15.75;8.48;;;;;;;;;;5065173;28;20109;-76
2024/01/01 02:40:25;;;;;;;17.17;9.45;;;;;;;;;;5056252;28;20013;-75
2024/01/01 02:42:51;;;;;;;16.15;8.05;;;;;;;;;;5061571;28;20036;-76
2024/01/01 02:45:20;;;;;;;24.55;9.40;;;;;;;;;;5065215;28;20020;-76
2024/01/01 02:47:46;;;;;;;20.60;8.52;;;;;;;;;;5051933;28;20035;-76
2024/01/01 02:50:11;;;;;;;25.40;9.68;;;;;;;;;;5059143;28;20116;-76
2024/01/01 02:52:37;;;;;;;20.25;10.13;;;;;;;;;;5054311;28;20021;-76
2024/01/01 02:55:03;;;;;;;17.73;8.27;;;;;;;;;;5055473;28;20387;-76
2024/01/01 02:57:29;;;;;;;21.90;9.00;;;;;;;;;;5057906;28;20061;-76
2024/01/01 02:59:55;;;;;;;23.42;9.55;;;;;;;;;;5069868;28;20051;-76
2024/01/01 03:02:21;;;;;;;22.55;9.93;;;;;;;;;;5061538;28;20517;-76
2024/01/01 03:04:47;;;;;;;17.25;8.57;;;;;;;;;;5052917;28;20079;-76
2024/01/01 03:07:13;;;;;;;21.30;8.23;;;;;;;;;;5060405;28;20039;-76
2024/01/01 03:09:39;;;;;;;14.02;6.30;;;;;;;;;;5059122;28;20100;-77
2024/01/01 03:12:05;;;;;;;22.08;8.70;;;;;;;;;;5055718;28;20028;-75
2024/01/01 03:14:31;;;;;;;18.10;8.40;;;;;;;;;;5051798;28;20029;-75
2024/01/01 03:16:57;;;;;;;17.70;8.68;;;;;;;;;;5058665;28;20152;-76
2024/01/01 03:19:23;;;;;;;16.23;8.05;;;;;;;;;;5061865;28;20029;-75
2024/01/01 03:21:49;;;;;;;19.92;8.50;;;;;;;;;;5065761;28;20029;-77
2024/01/01 03:24:15;;;;;;;14.82;7.07;;;;;;;;;;5069479;28;20040;-77
2024/01/01 03:26:41;;;;;;;13.50;6.95;;;;;;;;;;5070517;28;20016;-77
2024/01/01 03:29:07;;;;;;;13.23;6.53;;;;;;;;;;5061562;28;20020;-77
2024/01/01 03:31:33;;;;;;;16.23;7.18;;;;;;;;;;5053691;28;20036;-75
2024/01/01 03:33:59;;;;;;;15.13;6.57;;;;;;;;;;5064791;28;20029;-77
2024/01/01 03:36:25;;;;;;;13.75;6.28;;;;;;;;;;5055092;28;20056;-75
2024/01/01 03:38:51;;;;;;;11.93;5.80;;;;;;;;;;5061730;28;20028;-75
2024/01/01 03:41:17;;;;;;;11.90;6.22;;;;;;;;;;5068485;28;20025;-75
2024/01/01 03:43:43;;;;;;;16.08;5.88;;;;;;;;;;5067990;28;20751;-75
2024/01/01 03:46:09;;;;;;;13.60;6.18;;;;;;;;;;5054519;28;20156;-76
2024/01/01 03:48:35;;;;;;;15.73;5.78;;;;;;;;;;5057761;28;20103;-75
2024/01/01 03:51:02;;;;;;;16.60;5.65;;;;;;;;;;5053267;28;20029;-77
2024/01/01 03:53:28;;;;;;;9.18;5.18;;;;;;;;;;5052257;28;20104;-75
2024/01/01 03:55:54;;;;;;;11.95;5.38;;;;;;;;;;5068041;28;20115;-77
2024/01/01 03:58:20;;;;;;;9.85;5.50;;;;;;;;;;5050744;28;20161;-75
2024/01/01 04:00:46;;;;;;;13.48;4.75;;;;;;;;;;5066585;28;20033;-76
2024/01/01 04:03:12;;;;;;;10.38;5.15;;;;;;;;;;5058770;28;20057;-77
2024/01/01 04:05:38;;;;;;;8.10;4.40;;;;;;;;;;5062502;28;20025;-76
2024/01/01 04:08:04;;;;;;;12.05;5.68;;;;;;;;;;5060580;28;20028;-76
2024/01/01 04:10:30;;;;;;;7.43;4.55;;;;;;;;;;5058952;28;20036;-76
2024/01/01 04:12:56;;;;;;;13.25;5.93;;;;;;;;;;5063692;28;20025;-76
2024/01/01 04:15:21;;;;;;;6.38;4.63;;;;;;;;;;5055373;28;20021;-76
2024/01/01 04:17:47;;;;;;;9.48;4.75;;;;;;;;;;5065862;28;20466;-76
2024/01/01 04:20:13;;;;;;;9.30;4.57;;;;;;;;;;5059245;28;20024;-76
2024/01/01 04:22:42;;;;;;;17.13;6.18;;;;;;;;;;5053673;28;20228;-76
2024/01/01 04:25:09;;;;;;;12.82;5.95;;;;;;;;;;5063053;28;20079;-76
2024/01/01 04:27:35;;;;;;;9.23;4.63;;;;;;;;;;5050551;28;20021;-76
2024/01/01 04:30:04;;;;;;;12.15;5.25;;;;;;;;;;5055849;28;20040;-76
2024/01/01 04:32:29;;;;;;;10.93;5.00;;;;;;;;;;5052904;28;20122;-76
2024/01/01 04:34:55;;;;;;;15.00;5.35;;;;;;;;;;5056508;28;20547;-76
2024/01/01 04:37:21;;;;;;;14.95;5.65;;;;;;;;;;5050510;28;20108;-76
2024/01/01 04:39:47;;;;;;;10.93;5.25;;;;;;;;;;5053295;28;20033;-76
2024/01/01 04:42:13;;;;;;;13.70;4.93;;;;;;;;;;5059660;28;20506;-76
2024/01/01 04:44:39;;;;;;;12.25;5.32;;;;;;;;;;5053296;28;20083;-76
2024/01/01 04:47:05;;;;;;;17.67;5.75;;;;;;;;;;5051555;28;20655;-77
2024/01/01 04:49:31;;;;;;;11.75;5.07;;;;;;;;;;5065275;28;20048;-76
2024/01/01 04:51:57;;;;;;;12.27;5.80;;;;;;;;;;5055836;28;20379;-76
2024/01/01 04:54:24;;;;;;;17.02;5.68;;;;;;;;;;5066915;28;20020;-76
2024/01/01 04:56:50;;;;;;;9.85;5.88;;;;;;;;;;5064898;28;20037;-76
2024/01/01 04:59:15;;;;;;;12.95;5.13;;;;;;;;;;5069242;28;20035;-76
2024/01/01 05:01:41;;;;;;;13.40;5.47;;;;;;;;;;5062358;28;20040;-76
2024/01/01 05:04:07;;;;;;;11.95;6.70;;;;;;;;;;5050548;28;20108;-76
2024/01/01 05:06:33;;;;;;;12.15;5.00;;;;;;;;;;5056827;28;20479;-76
2024/01/01 05:08:59;;;;;;;10.40;5.88;;;;;;;;;;5059296;28;20021;-76
2024/01/01 05:11:25;;;;;;;12.13;5.25;;;;;;;;;;5055590;28;20078;-76
2024/01/01 05:13:51;;;;;;;13.35;6.50;;;;;;;;;;5057613;28;20083;-76
2024/01/01 05:16:18;;;;;;;10.32;5.72;;;;;;;;;;5054040;28;20029;-76
2024/01/01 05:18:43;;;;;;;11.57;6.03;;;;;;;;;;5050676;28;20096;-76
2024/01/01 05:21:09;;;;;;;10.82;5.63;;;;;;;;;;5060450;28;20033;-77
2024/01/01 05:23:35;;;;;;;12.40;5.57;;;;;;;;;;5059624;28;20384;-76
2024/01/01 05:26:01;;;;;;;9.82;4.53;;;;;;;;;;5052191;28;20275;-76
2024/01/01 05:28:27;;;;;;;11.18;6.03;;;;;;;;;;5061012;28;20021;-76
2024/01/01 05:30:53;;;;;;;17.15;5.75;;;;;;;;;;5059195;28;20081;-76
2024/01/01 05:33:19;;;;;;;6.78;4.47;;;;;;;;;;5059653;28;20032;-76
2024/01/01 05:35:45;;;;;;;11.43;4.68;;;;;;;;;;5061057;28;20040;-76
2024/01/01 05:38:11;;;;;;;13.90;5.05;;;;;;;;;;5049206;28;20037;-76
2024/01/01 05:40:38;;;;;;;12.02;5.97;;;;;;;;;;5062995;28;20029;-76
2024/01/01 05:43:04;;;;;;;12.23;5.07;;;;;;;;;;5061862;28;20086;-76
2024/01/01 05:45:30;;;;;;;5.40;2.75;;;;;;;;;;5061757;28;20033;-76
2024/01/01 05:47:56;;;;;;;16.25;5.43;;;;;;;;;;5057298;28;20061;-76
2024/01/01 05:50:22;;;;;;;13.50;4.80;;;;;;;;;;5052581;28;20078;-76
2024/01/01 05:52:48;;;;;;;10.48;5.47;;;;;;;;;;5057408;28;20104;-76
2024/01/01 05:55:14;;;;;;;7.88;3.90;;;;;;;;;;5060826;28;20078;-76
2024/01/01 05:57:40;;;;;;;11.30;6.00;;;;;;;;;;5064531;28;20074;-76
2024/01/01 06:00:06;;;;;;;9.27;4.47;;;;;;;;;;5049905;28;20438;-76
2024/01/01 06:02:32;;;;;;;13.70;5.50;;;;;;;;;;5049126;28;20053;-76
2024/01/01 06:04:58;;;;;;;14.30;5.55;;;;;;;;;;5048527;28;20284;-76
2024/01/01 06:07:24;;;;;;;9.57;4.32;;;;;;;;;;5053203;28;20486;-76
2024/01/01 06:09:49;;;;;;;9.25;3.83;;;;;;;;;;5054384;28;20179;-76
2024/01/01 06:12:15;;;;;;;13.02;4.35;;;;;;;;;;5062958;28;20043;-76
2024/01/01 06:14:41;;;;;;;7.53;4.40;;;;;;;;;;5053755;28;20087;-76
2024/01/01 06:17:07;;;;;;;7.63;3.15;;;;;;;;;;5055989;28;20044;-76
2024/01/01 06:19:33;;;;;;;9.90;4.40;;;;;;;;;;5050628;28;20523;-76
2024/01/01 06:21:59;;;;;;;10.13;5.32;;;;;;;;;;5048679;28;20029;-76
2024/01/01 06:24:25;;;;;;;8.00;4.53;;;;;;;;;;5052208;28;20111;-76
2024/01/01 06:26:51;;;;;;;8.27;4.13;;;;;;;;;;5059261;28;20016;-76
2024/01/01 06:29:17;;;;;;;6.97;4.03;;;;;;;;;;5048974;28;20360;-77
2024/01/01 06:31:43;;;;;;;6.95;4.13;;;;;;;;;;5048618;28;20021;-76
2024/01/01 06:34:08;;;;;;;11.05;4.25;;;;;;;;;;5052523;28;20059;-76
2024/01/01 06:36:34;;;;;;;9.15;3.80;;;;;;;;;;5064039;28;20124;-76
2024/01/01 06:39:00;;;;;;;9.65;4.40;;;;;;;;;;5057929;28;20071;-76
2024/01/01 06:41:26;;;;;;;6.88;4.35;;;;;;;;;;5053613;28;20047;-77
2024/01/01 06:43:52;;;;;;;12.90;3.95;;;;;;;;;;5054286;28;20025;-77
2024/01/01 06:46:18;;;;;;;4.53;3.20;;;;;;;;;;5057168;28;20520;-76
2024/01/01 06:48:44;;;;;;;8.23;4.13;;;;;;;;;;5058875;28;20028;-76
2024/01/01 06:51:10;;;;;;;9.82;4.38;;;;;;;;;;5068804;28;20665;-76
2024/01/01 06:53:36;;;;;;;7.53;3.20;;;;;;;;;;5059405;28;20036;-76
2024/01/01 06:56:02;;;;;;;7.75;3.72;;;;;;;;;;5053941;28;20032;-76
2024/01/01 06:58:28;;;;;;;9.02;4.00;;;;;;;;;;5062047;28;20123;-76
2024/01/01 07:00:54;;;;;;;4.95;3.35;;;;;;;;;;5057501;28;20029;-76
2024/01/01 07:03:20;;;;;;;4.72;2.33;;;;;;;;;;5049091;28;20098;-76
2024/01/01 07:05:46;;;;;;;5.53;3.15;;;;;;;;;;5049442;28;20052;-76
2024/01/01 07:08:12;;;;;;;8.10;3.15;;;;;;;;;;5050091;28;20548;-77
2024/01/01 07:10:38;;;;;;;8.15;3.78;;;;;;;;;;5057897;28;20028;-77
2024/01/01 07:13:04;;;;;;;8.70;2.58;;;;;;;;;;5048418;28;20494;-76
2024/01/01 07:15:30;;;;;;;6.97;3.10;;;;;;;;;;5056059;28;20706;-76
2024/01/01 07:17:56;;;;;;;7.38;2.90;;;;;;;;;;5051638;28;20107;-76
2024/01/01 07:20:22;;;;;;;7.55;2.88;;;;;;;;;;5056392;28;20032;-76
2024/01/01 07:22:48;;;;;;;4.55;2.85;;;;;;;;;;5047896;28;20368;-76
2024/01/01 07:25:14;;;;;;;6.72;2.67;;;;;;;;;;5055660;28;20035;-76
2024/01/01 07:27:40;;;;;;;5.85;2.95;;;;;;;;;;5054610;28;20024;-76
2024/01/01 07:30:06;;;;;;;7.13;2.63;;;;;;;;;;5052409;28;20021;-76
2024/01/01 07:32:33;;;;;;;5.03;2.65;;;;;;;;;;5047927;28;20029;-76
2024/01/01 07:35:00;;;;;;;10.32;2.30;;;;;;;;;;5047130;28;20024;-76
2024/01/01 07:37:26;;;;;;;3.63;2.22;;;;;;;;;;5049664;28;20123;-76
2024/01/01 07:39:51;;;;;;;5.32;2.40;;;;;;;;;;5068842;28;20508;-76
2024/01/01 07:42:18;;;;;;;6.85;2.03;;;;;;;;;;5068901;28;20119;-76
2024/01/01 07:44:44;;;;;;;4.75;2.70;;;;;;;;;;5055751;28;20036;-76
2024/01/01 07:47:10;;;;;;;5.90;2.42;;;;;;;;;;5060944;28;20036;-76
2024/01/01 07:49:36;;;;;;;9.23;2.92;;;;;;;;;;5070522;28;20086;-76
2024/01/01 07:52:02;;;;;;;3.00;2.08;;;;;;;;;;5054023;28;20029;-76
2024/01/01 07:54:28;;;;;;;5.40;2.85;;;;;;;;;;5053209;28;20103;-76
2024/01/01 07:56:54;;;;;;;4.70;2.35;;;;;;;;;;5055784;28;20032;-76
2024/01/01 07:59:19;;;;;;;7.32;2.65;;;;;;;;;;5051071;28;20025;-76
2024/01/01 08:01:45;;;;;;;6.43;2.72;;;;;;;;;;5060053;28;20467;-76
2024/01/01 08:04:13;;;;;;;8.38;2.55;;;;;;;;;;5051092;28;20112;-76
2024/01/01 08:06:39;;;;;;;5.85;2.80;;;;;;;;;;5066088;28;20032;-76
2024/01/01 08:09:05;;;;;;;6.28;2.70;;;;;;;;;;5058730;28;20255;-76
2024/01/01 08:11:30;;;;;;;1.80;1.38;;;;;;;;;;5050429;28;20340;-76
2024/01/01 08:13:57;;;;;;;2.38;1.70;;;;;;;;;;5055518;28;20115;-76
2024/01/01 08:16:23;;;;;;;3.28;1.80;;;;;;;;;;5054554;28;20812;-76
2024/01/01 08:18:49;;;;;;;3.88;2.03;;;;;;;;;;5063635;28;20028;-76
2024/01/01 08:21:15;;;;;;;7.88;2.83;;;;;;;;;;5061429;28;20170;-76
2024/01/01 08:23:41;;;;;;;5.60;1.58;;;;;;;;;;5058374;28;20029;-76
2024/01/01 08:26:06;;;;;;;6.47;2.03;;;;;;;;;;5060330;28;20402;-76
2024/01/01 08:28:33;;;;;;;6.18;1.67;;;;;;;;;;5059615;28;20387;-76
2024/01/01 08:30:59;;;;;;;5.60;2.00;;;;;;;;;;5058438;28;20073;-76
2024/01/01 08:33:25;;;;;;;3.83;1.40;;;;;;;;;;5052424;28;20036;-76
2024/01/01 08:35:53;;;;;;;3.92;1.58;;;;;;;;;;5059702;28;20074;-76
2024/01/01 08:38:19;;;;;;;2.47;1.73;;;;;;;;;;5058041;28;20047;-77
2024/01/01 08:40:45;;;;;;;3.95;2.00;;;;;;;;;;5054445;28;20025;-76
2024/01/01 08:43:11;;;;;;;7.05;2.00;;;;;;;;;;5065174;28;20391;-76
2024/01/01 08:45:37;;;;;;;8.45;2.80;;;;;;;;;;5055241;28;20066;-76
2024/01/01 08:48:03;;;;;;;3.38;1.60;;;;;;;;;;5062290;28;20032;-76
2024/01/01 08:50:29;;;;;;;3.13;1.85;;;;;;;;;;5054112;28;20039;-76
2024/01/01 08:52:55;;;;;;;8.65;2.20;;;;;;;;;;5051770;28;20028;-76
2024/01/01 08:55:21;;;;;;;4.05;1.98;;;;;;;;;;5049577;28;20031;-76
2024/01/01 08:57:47;;;;;;;3.85;1.55;;;;;;;;;;5058679;28;20387;-76
2024/01/01 09:00:16;;;;;;;7.00;1.80;;;;;;;;;;5052208;28;20028;-76
2024/01/01 09:02:42;;;;;;;6.78;1.52;;;;;;;;;;5052178;28;20069;-76
2024/01/01 09:05:08;;;;;;;5.72;2.20;;;;;;;;;;5051293;28;20052;-76
2024/01/01 09:07:34;;;;;;;2.55;1.88;;;;;;;;;;5063123;28;20077;-77
2024/01/01 09:10:02;;;;;;;11.05;2.10;;;;;;;;;;5057975;28;20025;-76
2024/01/01 09:12:28;;;;;;;1.73;1.45;;;;;;;;;;5065034;28;20036;-76
2024/01/01 09:14:53;;;;;;;6.63;1.60;;;;;;;;;;5067986;28;20051;-76
2024/01/01 09:17:19;;;;;;;4.82;1.48;;;;;;;;;;5060229;28;20406;-76
2024/01/01 09:19:45;;;;;;;2.25;1.38;;;;;;;;;;5055447;28;20028;-89
2024/01/01 09:22:11;;;;;;;2.92;1.40;;;;;;;;;;5049609;28;20124;-79
2024/01/01 09:24:37;;;;;;;6.00;1.75;;;;;;;;;;5057499;28;20045;-79
2024/01/01 09:27:03;;;;;;;2.67;1.58;;;;;;;;;;5058344;28;20131;-83
2024/01/01 09:29:29;;;;;;;;;;;;;;;;;;5058280;28;20021;-86
2024/01/01 09:31:55;;;;;;;;;;;;;;;;;;5068196;28;19907;-85
2024/01/01 09:34:21;;;;;;;;;;;;;;;;;;5054024;28;19920;-87
2024/01/01 09:36:47;;;;;;;;;;;;;;;;;;5062899;28;19920;-87
2024/01/01 09:39:13;;;;;;;;;;;;;;;;;;5053490;28;20271;-86
2024/01/01 09:41:39;;;;;;;;;;;;;;;;;;5064153;28;19916;-86
2024/01/01 09:44:05;;;;;;;;;;;;;;;;;;5055923;28;19995;-87
2024/01/01 09:46:33;;;;;;;;;;;;;;;;;;5051701;28;19944;-86
2024/01/01 09:48:59;;;;;;;;;;;;;;;;;;5053580;28;20334;-86
2024/01/01 09:51:24;;;;;;;;;;;;;;;;;;5053856;28;19912;-86
2024/01/01 09:53:52;;;;;;;;;;;;;;;;;;5053087;28;20030;-88
2024/01/01 09:56:18;;;;;;;;;;;;;;;;;;5063116;28;19909;-84
2024/01/01 09:58:44;;;;;;;;;;;;;;;;;;5051779;28;20397;-91
2024/01/01 10:01:10;;;;;;;;;;;;;;;;;;5057400;28;19924;-86
2024/01/01 10:03:36;;;;;;;;;;;;;;;;;;5067624;28;19998;-88
2024/01/01 10:06:02;;;;;;;;;;;;;;;;;;5057442;28;20275;-89
2024/01/01 10:08:28;;;;;;;;;;;;;;;;;;5058191;28;19911;-87
2024/01/01 10:10:54;;;;;;;;;;;;;;;;;;5065890;28;19913;-86
2024/01/01 10:13:20;;;;;;;;;;;;;;;;;;5052457;28;19947;-86
2024/01/01 10:15:46;;;;;;;;;;;;;;;;;;5063116;28;19912;-88
2024/01/01 10:18:12;;;;;;;;;;;;;;;;;;5059128;28;19912;-86
2024/01/01 10:20:38;;;;;;;;;;;;;;;;;;5059376;28;20359;-87
2024/01/01 10:23:04;;;;;;;;;;;;;;;;;;5049620;28;20271;-88
2024/01/01 10:25:30;;;;;;;;;;;;;;;;;;5055806;28;19923;-89
2024/01/01 10:27:56;;;;;;;;;;;;;;;;;;5058848;28;19947;-81
2024/01/01 10:30:22;;;;;;;;;;;;;;;;;;5063827;28;19938;-90
2024/01/01 10:32:48;;;;;;;;;;;;;;;;;;5051939;28;19908;-89
2024/01/01 10:35:14;;;;;;;;;;;;;;;;;;5057883;28;19919;-90
2024/01/01 10:37:42;;;;;;;;;;;;;;;;;;5062962;28;19915;-90
2024/01/01 10:40:07;;;;;;;;;;;;;;;;;;5066391;28;19923;-87
2024/01/01 10:42:34;;;;;;;;;;;;;;;;;;5067935;28;20358;-86
2024/01/01 10:44:59;;;;;;;;;;;;;;;;;;5055623;28;20295;-82
2024/01/01 10:47:25;;;;;;;;;;;;;;;;;;5051113;28;19935;-85
2024/01/01 10:49:53;;;;;;;;;;;;;;;;;;5048439;28;19948;-85
2024/01/01 10:52:18;;;;;;;;;;;;;;;;;;5056435;28;19920;-86
2024/01/01 10:54:45;;;;;;;;;;;;;;;;;;5056338;28;19908;-86
2024/01/01 10:57:11;;;;;;;;;;;;;;;;;;5059717;28;19913;-86
2024/01/01 10:59:37;;;;;;;;;;;;;;;;;;5057055;28;19924;-86
2024/01/01 11:02:03;;;;;;;;;;;;;;;;;;5057457;28;20446;-85
2024/01/01 11:04:29;;;;;;;;;;;;;;;;;;5059405;28;19999;-86
2024/01/01 11:06:55;;;;;;;;;;;;;;;;;;5057436;28;19919;-88
2024/01/01 11:09:21;;;;;;;;;;;;;;;;;;5050282;28;19912;-88
2024/01/01 11:11:47;;;;;;;;;;;;;;;;;;5049148;28;19916;-87
2024/01/01 11:14:13;;;;;;;;;;;;;;;;;;5065474;28;19904;-87
2024/01/01 11:16:39;;;;;;;;;;;;;;;;;;5062659;28;19910;-88
2024/01/01 11:19:05;;;;;;;;;;;;;;;;;;5059183;28;20532;-87
2024/01/01 11:21:32;;;;;;;;;;;;;;;;;;5061954;28;19916;-88
2024/01/01 11:24:01;;;;;;;;;;;;;;;;;;5057369;28;20003;-86
2024/01/01 11:26:27;;;;;;;;;;;;;;;;;;5061822;28;19954;-86
2024/01/01 11:28:53;;;;;;;;;;;;;;;;;;5070555;28;19909;-87
2024/01/01 11:31:19;;;;;;;;;;;;;;;;;;5072224;28;19928;-87
2024/01/01 11:33:44;;;;;;;;;;;;;;;;;;5069479;28;19951;-87
2024/01/01 11:36:10;;;;;;;;;;;;;;;;;;5053535;28;19924;-87
2024/01/01 11:38:36;;;;;;;;;;;;;;;;;;5057313;28;20347;-87
2024/01/01 11:41:02;;;;;;;;;;;;;;;;;;5076634;28;20274;-87
2024/01/01 11:43:28;;;;;;;;;;;;;;;;;;5056464;28;19912;-86
2024/01/01 11:45:54;;;;;;;;;;;;;;;;;;5052521;28;19919;-87
2024/01/01 11:48:19;;;;;;;;;;;;;;;;;;5065394;28;19912;-87
2024/01/01 11:50:48;;;;;;;;;;;;;;;;;;5060746;28;19911;-87
2024/01/01 11:53:14;;;;;;;;;;;;;;;;;;5058911;28;19912;-87
2024/01/01 11:55:40;;;;;;;;;;;;;;;;;;5062285;28;20367;-87
2024/01/01 11:58:06;;;;;;;;;;;;;;;;;;5051751;28;19905;-86
2024/01/01 12:00:32;;;;;;;;;;;;;;;;;;5060966;28;19944;-85
2024/01/01 12:02:58;;;;;;;;;;;;;;;;;;5055268;28;19978;-87
2024/01/01 12:05:23;;;;;;;;;;;;;;;;;;5066614;28;19912;-86
2024/01/01 12:07:49;;;;;;;;;;;;;;;;;;5066239;28;20003;-87
2024/01/01 12:10:16;;;;;;;;;;;;;;;;;;5051549;28;19909;-87
2024/01/01 12:12:42;;;;;;;;;;;;;;;;;;5056487;28;19932;-85
2024/01/01 12:15:09;;;;;;;;;;;;;;;;;;5052032;28;19947;-88
2024/01/01 12:17:35;;;;;;;;;;;;;;;;;;5052382;28;19908;-87
2024/01/01 12:20:01;;;;;;;;;;;;;;;;;;5051295;28;19916;-87
2024/01/01 12:22:29;;;;;;;;;;;;;;;;;;5050949;28;19940;-87
2024/01/01 12:24:55;;;;;;;;;;;;;;;;;;5060687;28;19915;-86
2024/01/01 12:27:21;;;;;;;;;;;;;;;;;;5071481;28;19904;-88
2024/01/01 12:29:47;;;;;;;;;;;;;;;;;;5058400;28;19951;-86
2024/01/01 12:32:13;;;;;;;;;;;;;;;;;;5055734;28;20631;-87
2024/01/01 12:34:39;;;;;;;;;;;;;;;;;;5070799;28;19915;-86
2024/01/01 12:37:04;;;;;;;;;;;;;;;;;;5070849;28;19912;-86
2024/01/01 12:39:30;;;;;;;;;;;;;;;;;;5070763;28;19920;-87
2024/01/01 12:41:56;;;;;;;;;;;;;;;;;;5066614;28;19908;-87
2024/01/01 12:44:23;;;;;;;;;;;;;;;;;;5061635;28;20266;-86
2024/01/01 12:46:49;;;;;;;;;;;;;;;;;;5053410;28;19905;-86
2024/01/01 12:49:15;;;;;;;;;;;;;;;;;;5061179;28;19904;-86
2024/01/01 12:51:41;;;;;;;;;;;;;;;;;;5053318;28;20003;-87
2024/01/01 12:54:07;;;;;;;;;;;;;;;;;;5050399;28;19912;-87
2024/01/01 12:56:33;;;;;;;;;;;;;;;;;;5064219;28;20343;-87
2024/01/01 12:58:59;;;;;;;;;;;;;;;;;;5068288;28;19914;-88
2024/01/01 13:01:25;;;;;;;;;;;;;;;;;;5052199;28;20000;-87
2024/01/01 13:03:50;;;;;;;;;;;;;;;;;;5062900;28;19916;-86
2024/01/01 13:06:16;;;;;;;;;;;;;;;;;;5065215;28;20171;-86
2024/01/01 13:08:43;;;;;;;;;;;;;;;;;;5049869;28;20080;-87
2024/01/01 13:11:10;;;;;;;;;;;;;;;;;;5050032;28;19905;-85
2024/01/01 13:13:36;;;;;;;;;;;;;;;;;;5063128;28;19999;-86
2024/01/01 13:16:02;;;;;;;;;;;;;;;;;;5068702;28;19999;-87
2024/01/01 13:18:28;;;;;;;;;;;;;;;;;;5059179;28;19916;-86
2024/01/01 13:20:54;;;;;;;;;;;;;;;;;;5052416;28;19909;-87
2024/01/01 13:23:19;;;;;;;;;;;;;;;;;;5060284;28;20366;-87
2024/01/01 13:25:45;;;;;;;;;;;;;;;;;;5076123;28;20220;-88
2024/01/01 13:28:11;;;;;;;;;;;;;;;;;;5060162;28;19916;-87
2024/01/01 13:30:38;;;;;;;;;;;;;;;;;;5069679;28;19915;-87
2024/01/01 13:33:04;;;;;;;;;;;;;;;;;;5069297;28;19904;-85
2024/01/01 13:35:29;;;;;;;;;;;;;;;;;;5051776;28;19908;-87
2024/01/01 13:37:55;;;;;;;;;;;;;;;;;;5060791;28;19982;-87
2024/01/01 13:40:21;;;;;;;;;;;;;;;;;;5061276;28;19915;-86
2024/01/01 13:42:47;;;;;;;;;;;;;;;;;;5059764;28;19919;-85
2024/01/01 13:45:13;;;;;;;;;;;;;;;;;;5051563;28;19912;-86
2024/01/01 13:47:39;;;;;;;;;;;;;;;;;;5062941;28;20016;-88
2024/01/01 13:50:05;;;;;;;;;;;;;;;;;;5056051;28;20401;-86
2024/01/01 13:52:33;;;;;;;;;;;;;;;;;;5057565;28;20367;-87
2024/01/01 13:54:59;;;;;;;;;;;;;;;;;;5069045;28;19911;-87
2024/01/01 13:57:26;;;;;;;;;;;;;;;;;;5056939;28;20008;-87
2024/01/01 13:59:52;;;;;;;;;;;;;;;;;;5051173;28;19926;-86
2024/01/01 14:02:18;;;;;;;;;;;;;;;;;;5057451;28;19926;-83
2024/01/01 14:04:47;;;;;;;;;;;;;;;;;;5071112;28;19916;-90
2024/01/01 14:07:14;;;;;;;;;;;;;;;;;;5064593;28;20370;-81
2024/01/01 14:09:40;;;;;;;;;;;;;;;;;;5062591;28;19912;-77
2024/01/01 14:12:06;;;;;;;;;;;;;;;;;;5077860;28;19904;-77
2024/01/01 14:14:32;;;;;;;;;;;;;;;;;;5063792;28;19908;-77
2024/01/01 14:16:58;;;;;;;;;;;;;;;;;;5053088;28;19963;-77
2024/01/01 14:19:24;;;;;;;;;;;;;;;;;;5061073;28;19913;-77
2024/01/01 14:21:50;;;;;;;;;;;;;;;;;;5072792;28;20256;-77
2024/01/01 14:24:15;;;;;;;;;;;;;;;;;;5065239;28;20263;-78
2024/01/01 14:26:42;;;;;;;;;;;;;;;;;;5061331;28;20256;-77
2024/01/01 14:29:08;;;;;;;;;;;;;;;;;;5054656;28;19909;-78
2024/01/01 14:31:34;;;;;;;;;;;;;;;;;;5064197;28;19926;-78
2024/01/01 14:34:00;;;;;;;;;;;;;;;;;;5057337;28;19908;-79
2024/01/01 14:36:26;;;;;;;;;;;;;;;;;;5052813;28;19916;-78
2024/01/01 14:38:52;;;;;;;;;;;;;;;;;;5054541;28;20324;-78
2024/01/01 14:41:18;;;;;;;;;;;;;;;;;;5062047;28;19919;-77
2024/01/01 14:43:45;;;;;;;;;;;;;;;;;;5059809;28;20298;-80
2024/01/01 14:46:10;;;;;;;;;;;;;;;;;;5062204;28;19965;-85
2024/01/01 14:48:36;;;;;;;;;;;;;;;;;;5057601;28;20127;-85
2024/01/01 14:51:02;;;;;;;;;;;;;;;;;;5058016;28;19999;-80
2024/01/01 14:53:28;;;;;;;;;;;;;;;;;;5060738;28;19909;-85
2024/01/01 14:55:54;;;;;;;;;;;;;;;;;;5063618;28;19915;-84
2024/01/01 14:58:21;;;;;;;;;;;;;;;;;;5059478;28;20520;-81
2024/01/01 15:00:47;;;;;;;;;;;;;;;;;;5054203;28;20283;-80
2024/01/01 15:03:14;;;;;;;;;;;;;;;;;;5058325;28;19925;-82
2024/01/01 15:05:40;;;;;;;;;;;;;;;;;;5063984;28;19916;-78
2024/01/01 15:08:08;;;;;;;;;;;;;;;;;;5057200;28;20306;-81
2024/01/01 15:10:34;;;;;;;;;;;;;;;;;;5059951;28;19941;-78